sensor_id;sensor_type;location;lat;lon;timestamp;pressure;altitude;pressure_sealevel;temperature;humidity
22025;BME280;11176;51.448;6.650;2023-03-26T00:01:11;45562.09;;;-141.29;100.00
22025;BME280;11176;51.448;6.650;2023-03-26T00:03:39;45570.09;;;-141.29;100.00
22025;BME280;11176;51.448;6.650;2023-03-26T00:06:13;45558.09;;;-141.29;100.00
22025;BME280;11176;51.448;6.650;2023-03-26T00:08:41;45568.09;;;-141.29;100.00
22025;BME280;11176;51.448;6.650;2023-03-26T00:11:09;45558.09;;;-141.29;100.00
22025;BME280;11176;51.448;6.650;2023-03-26T00:13:37;45558.09;;;-141.29;100.00
22025;BME280;11176;51.448;6.650;2023-03-26T00:16:04;45556.09;;;-141.29;100.00
22025;BME280;11176;51.448;6.650;2023-03-26T00:18:30;45534.13;;;-141.29;100.00
22025;BME280;11176;51.448;6.650;2023-03-26T00:20:58;45578.09;;;-141.29;100.00
22025;BME280;11176;51.448;6.650;2023-03-26T00:23:26;45552.13;;;-141.29;100.00
22025;BME280;11176;51.448;6.650;2023-03-26T00:25:53;45578.09;;;-141.29;100.00
22025;BME280;11176;51.448;6.650;2023-03-26T00:28:22;45564.09;;;-141.29;100.00
22025;BME280;11176;51.448;6.650;2023-03-26T00:30:57;45560.09;;;-141.29;100.00
22025;BME280;11176;51.448;6.650;2023-03-26T00:33:24;45560.09;;;-141.29;100.00
22025;BME280;11176;51.448;6.650;2023-03-26T00:35:56;45550.13;;;-141.29;100.00
22025;BME280;11176;51.448;6.650;2023-03-26T00:38:25;45566.09;;;-141.29;100.00
22025;BME280;11176;51.448;6.650;2023-03-26T00:40:52;45558.09;;;-141.29;100.00
22025;BME280;11176;51.448;6.650;2023-03-26T00:43:20;45572.09;;;-141.29;100.00
22025;BME280;11176;51.448;6.650;2023-03-26T00:45:48;45540.13;;;-141.29;100.00
22025;BME280;11176;51.448;6.650;2023-03-26T00:48:16;45558.09;;;-141.29;100.00
22025;BME280;11176;51.448;6.650;2023-03-26T00:50:44;45566.09;;;-141.29;100.00
22025;BME280;11176;51.448;6.650;2023-03-26T00:53:12;45566.09;;;-141.29;100.00
22025;BME280;11176;51.448;6.650;2023-03-26T00:55:44;45556.09;;;-141.29;100.00
22025;BME280;11176;51.448;6.650;2023-03-26T00:58:12;45542.13;;;-141.29;100.00
22025;BME280;11176;51.448;6.650;2023-03-26T01:00:47;45558.09;;;-141.29;100.00
22025;BME280;11176;51.448;6.650;2023-03-26T01:03:17;45558.09;;;-141.29;100.00
22025;BME280;11176;51.448;6.650;2023-03-26T01:06:07;45550.13;;;-141.29;100.00
22025;BME280;11176;51.448;6.650;2023-03-26T01:08:37;45592.09;;;-141.29;100.00
22025;BME280;11176;51.448;6.650;2023-03-26T01:11:20;45566.09;;;-141.29;100.00
22025;BME280;11176;51.448;6.650;2023-03-26T01:13:53;45558.09;;;-141.29;100.00
22025;BME280;11176;51.448;6.650;2023-03-26T01:16:34;45568.09;;;-141.29;100.00
22025;BME280;11176;51.448;6.650;2023-03-26T01:19:16;45576.09;;;-141.29;100.00
22025;BME280;11176;51.448;6.650;2023-03-26T01:21:45;45578.09;;;-141.29;100.00
22025;BME280;11176;51.448;6.650;2023-03-26T01:24:12;45574.09;;;-141.29;100.00
22025;BME280;11176;51.448;6.650;2023-03-26T01:26:53;45544.13;;;-141.29;100.00
22025;BME280;11176;51.448;6.650;2023-03-26T01:29:38;45554.09;;;-141.29;100.00
22025;BME280;11176;51.448;6.650;2023-03-26T01:32:38;45586.09;;;-141.29;100.00
22025;BME280;11176;51.448;6.650;2023-03-26T01:38:01;45554.09;;;-141.29;100.00
22025;BME280;11176;51.448;6.650;2023-03-26T01:40:59;45586.09;;;-141.29;100.00
22025;BME280;11176;51.448;6.650;2023-03-26T01:46:25;45570.09;;;-141.29;100.00
22025;BME280;11176;51.448;6.650;2023-03-26T01:48:53;45570.09;;;-141.29;100.00
22025;BME280;11176;51.448;6.650;2023-03-26T01:51:35;45584.09;;;-141.29;100.00
22025;BME280;11176;51.448;6.650;2023-03-26T01:54:03;45586.09;;;-141.29;100.00
22025;BME280;11176;51.448;6.650;2023-03-26T02:02:13;45576.09;;;-141.29;100.00
22025;BME280;11176;51.448;6.650;2023-03-26T02:07:27;45590.09;;;-141.29;100.00
22025;BME280;11176;51.448;6.650;2023-03-26T02:10:06;45566.09;;;-141.29;100.00
22025;BME280;11176;51.448;6.650;2023-03-26T02:12:39;45572.09;;;-141.29;100.00
22025;BME280;11176;51.448;6.650;2023-03-26T02:15:07;45602.06;;;-141.29;100.00
22025;BME280;11176;51.448;6.650;2023-03-26T02:17:33;45572.09;;;-141.29;100.00
22025;BME280;11176;51.448;6.650;2023-03-26T02:20:00;45570.09;;;-141.29;100.00
22025;BME280;11176;51.448;6.650;2023-03-26T02:22:33;45576.09;;;-141.29;100.00
22025;BME280;11176;51.448;6.650;2023-03-26T02:25:10;45594.09;;;-141.29;100.00
22025;BME280;11176;51.448;6.650;2023-03-26T02:27:38;45568.09;;;-141.29;100.00
22025;BME280;11176;51.448;6.650;2023-03-26T02:30:13;45578.09;;;-141.29;100.00
22025;BME280;11176;51.448;6.650;2023-03-26T02:32:42;45572.09;;;-141.29;100.00
22025;BME280;11176;51.448;6.650;2023-03-26T02:35:11;45582.09;;;-141.29;100.00
22025;BME280;11176;51.448;6.650;2023-03-26T02:37:38;45580.09;;;-141.29;100.00
22025;BME280;11176;51.448;6.650;2023-03-26T02:40:13;45572.09;;;-141.29;100.00
22025;BME280;11176;51.448;6.650;2023-03-26T02:42:42;45564.09;;;-141.29;100.00
22025;BME280;11176;51.448;6.650;2023-03-26T02:45:08;45570.09;;;-141.29;100.00
22025;BME280;11176;51.448;6.650;2023-03-26T02:47:55;45594.09;;;-141.29;100.00
22025;BME280;11176;51.448;6.650;2023-03-26T02:50:41;45584.09;;;-141.29;100.00
22025;BME280;11176;51.448;6.650;2023-03-26T02:53:37;45562.09;;;-141.29;100.00
22025;BME280;11176;51.448;6.650;2023-03-26T02:56:38;45582.09;;;-141.29;100.00
22025;BME280;11176;51.448;6.650;2023-03-26T02:59:23;45574.09;;;-141.29;100.00
22025;BME280;11176;51.448;6.650;2023-03-26T03:02:09;45590.09;;;-141.29;100.00
22025;BME280;11176;51.448;6.650;2023-03-26T03:04:38;45586.09;;;-141.29;100.00
22025;BME280;11176;51.448;6.650;2023-03-26T03:07:05;45596.06;;;-141.29;100.00
22025;BME280;11176;51.448;6.650;2023-03-26T03:09:33;45592.09;;;-141.29;100.00
22025;BME280;11176;51.448;6.650;2023-03-26T03:12:19;45582.09;;;-141.29;100.00
22025;BME280;11176;51.448;6.650;2023-03-26T03:14:45;45592.09;;;-141.29;100.00
22025;BME280;11176;51.448;6.650;2023-03-26T03:17:12;45578.09;;;-141.29;100.00
22025;BME280;11176;51.448;6.650;2023-03-26T03:19:38;45576.09;;;-141.29;100.00
22025;BME280;11176;51.448;6.650;2023-03-26T03:22:05;45610.06;;;-141.29;100.00
22025;BME280;11176;51.448;6.650;2023-03-26T03:24:33;45588.09;;;-141.29;100.00
22025;BME280;11176;51.448;6.650;2023-03-26T03:27:00;45614.06;;;-141.29;100.00
22025;BME280;11176;51.448;6.650;2023-03-26T03:29:32;45608.06;;;-141.29;100.00
22025;BME280;11176;51.448;6.650;2023-03-26T03:32:18;45604.06;;;-141.29;100.00
22025;BME280;11176;51.448;6.650;2023-03-26T03:34:49;45612.06;;;-141.29;100.00
22025;BME280;11176;51.448;6.650;2023-03-26T03:37:18;45606.06;;;-141.29;100.00
22025;BME280;11176;51.448;6.650;2023-03-26T03:39:51;45618.06;;;-141.29;100.00
22025;BME280;11176;51.448;6.650;2023-03-26T03:42:20;45618.06;;;-141.29;100.00
22025;BME280;11176;51.448;6.650;2023-03-26T03:44:49;45610.06;;;-141.29;100.00
22025;BME280;11176;51.448;6.650;2023-03-26T03:47:38;45606.06;;;-141.29;100.00
22025;BME280;11176;51.448;6.650;2023-03-26T03:50:06;45620.06;;;-141.29;100.00
22025;BME280;11176;51.448;6.650;2023-03-26T03:52:34;45614.06;;;-141.29;100.00
22025;BME280;11176;51.448;6.650;2023-03-26T03:55:00;45618.06;;;-141.29;100.00
22025;BME280;11176;51.448;6.650;2023-03-26T03:57:44;45610.06;;;-141.29;100.00
22025;BME280;11176;51.448;6.650;2023-03-26T04:00:18;45618.06;;;-141.29;100.00
22025;BME280;11176;51.448;6.650;2023-03-26T04:02:57;45594.09;;;-141.29;100.00
22025;BME280;11176;51.448;6.650;2023-03-26T04:05:26;45600.06;;;-141.29;100.00
22025;BME280;11176;51.448;6.650;2023-03-26T04:07:52;45596.06;;;-141.29;100.00
22025;BME280;11176;51.448;6.650;2023-03-26T04:10:21;45606.06;;;-141.29;100.00
22025;BME280;11176;51.448;6.650;2023-03-26T04:13:03;45608.06;;;-141.29;100.00
22025;BME280;11176;51.448;6.650;2023-03-26T04:16:05;45600.06;;;-141.29;100.00
22025;BME280;11176;51.448;6.650;2023-03-26T04:18:33;45606.06;;;-141.29;100.00
22025;BME280;11176;51.448;6.650;2023-03-26T04:21:08;45610.06;;;-141.29;100.00
22025;BME280;11176;51.448;6.650;2023-03-26T04:23:35;45578.09;;;-141.29;100.00
22025;BME280;11176;51.448;6.650;2023-03-26T04:26:14;45612.06;;;-141.29;100.00
22025;BME280;11176;51.448;6.650;2023-03-26T04:29:05;45610.06;;;-141.29;100.00
22025;BME280;11176;51.448;6.650;2023-03-26T04:31:37;45618.06;;;-141.29;100.00
22025;BME280;11176;51.448;6.650;2023-03-26T04:34:07;45598.06;;;-141.29;100.00
22025;BME280;11176;51.448;6.650;2023-03-26T04:36:49;45610.06;;;-141.29;100.00
22025;BME280;11176;51.448;6.650;2023-03-26T04:39:17;45610.06;;;-141.29;100.00
22025;BME280;11176;51.448;6.650;2023-03-26T04:42:02;45608.06;;;-141.29;100.00
22025;BME280;11176;51.448;6.650;2023-03-26T04:44:40;45604.06;;;-141.29;100.00
22025;BME280;11176;51.448;6.650;2023-03-26T04:47:10;45598.06;;;-141.29;100.00
22025;BME280;11176;51.448;6.650;2023-03-26T04:49:44;45588.09;;;-141.29;100.00
22025;BME280;11176;51.448;6.650;2023-03-26T04:52:13;45586.09;;;-141.29;100.00
22025;BME280;11176;51.448;6.650;2023-03-26T04:55:13;45606.06;;;-141.29;100.00
22025;BME280;11176;51.448;6.650;2023-03-26T04:57:52;45606.06;;;-141.29;100.00
22025;BME280;11176;51.448;6.650;2023-03-26T05:00:40;45598.06;;;-141.29;100.00
22025;BME280;11176;51.448;6.650;2023-03-26T05:03:11;45610.06;;;-141.29;100.00
22025;BME280;11176;51.448;6.650;2023-03-26T05:05:38;45600.06;;;-141.29;100.00
22025;BME280;11176;51.448;6.650;2023-03-26T05:08:06;45602.06;;;-141.29;100.00
22025;BME280;11176;51.448;6.650;2023-03-26T05:10:33;45578.09;;;-141.29;100.00
22025;BME280;11176;51.448;6.650;2023-03-26T05:13:08;45626.06;;;-141.29;100.00
22025;BME280;11176;51.448;6.650;2023-03-26T05:15:38;45602.06;;;-141.29;100.00
22025;BME280;11176;51.448;6.650;2023-03-26T05:18:08;45588.09;;;-141.29;100.00
22025;BME280;11176;51.448;6.650;2023-03-26T05:20:45;45614.06;;;-141.29;100.00
22025;BME280;11176;51.448;6.650;2023-03-26T05:23:12;45626.06;;;-141.29;100.00
22025;BME280;11176;51.448;6.650;2023-03-26T05:25:41;45586.09;;;-141.29;100.00
22025;BME280;11176;51.448;6.650;2023-03-26T05:28:15;45602.06;;;-141.29;100.00
22025;BME280;11176;51.448;6.650;2023-03-26T05:30:53;45582.09;;;-141.29;100.00
22025;BME280;11176;51.448;6.650;2023-03-26T05:33:21;45596.06;;;-141.29;100.00
22025;BME280;11176;51.448;6.650;2023-03-26T05:35:59;45604.06;;;-141.29;100.00
22025;BME280;11176;51.448;6.650;2023-03-26T05:38:29;45596.06;;;-141.29;100.00
22025;BME280;11176;51.448;6.650;2023-03-26T05:41:03;45618.06;;;-141.29;100.00
22025;BME280;11176;51.448;6.650;2023-03-26T05:43:30;45590.09;;;-141.29;100.00
22025;BME280;11176;51.448;6.650;2023-03-26T05:46:05;45598.06;;;-141.29;100.00
22025;BME280;11176;51.448;6.650;2023-03-26T05:48:31;45604.06;;;-141.29;100.00
22025;BME280;11176;51.448;6.650;2023-03-26T05:50:58;45608.06;;;-141.29;100.00
22025;BME280;11176;51.448;6.650;2023-03-26T05:53:28;45614.06;;;-141.29;100.00
22025;BME280;11176;51.448;6.650;2023-03-26T05:56:13;45602.06;;;-141.29;100.00
22025;BME280;11176;51.448;6.650;2023-03-26T05:58:59;45602.06;;;-141.29;100.00
22025;BME280;11176;51.448;6.650;2023-03-26T06:01:44;45582.09;;;-141.29;100.00
22025;BME280;11176;51.448;6.650;2023-03-26T06:04:13;45610.06;;;-141.29;100.00
22025;BME280;11176;51.448;6.650;2023-03-26T06:07:09;45590.09;;;-141.29;100.00
22025;BME280;11176;51.448;6.650;2023-03-26T06:09:39;45596.06;;;-141.29;100.00
22025;BME280;11176;51.448;6.650;2023-03-26T06:12:07;45614.06;;;-141.29;100.00
22025;BME280;11176;51.448;6.650;2023-03-26T06:14:36;45598.06;;;-141.29;100.00
22025;BME280;11176;51.448;6.650;2023-03-26T06:17:10;45596.06;;;-141.29;100.00
22025;BME280;11176;51.448;6.650;2023-03-26T06:20:03;45574.09;;;-141.29;100.00
22025;BME280;11176;51.448;6.650;2023-03-26T06:22:40;45602.06;;;-141.29;100.00
22025;BME280;11176;51.448;6.650;2023-03-26T06:25:23;45610.06;;;-141.29;100.00
22025;BME280;11176;51.448;6.650;2023-03-26T06:27:58;45582.09;;;-141.29;100.00
22025;BME280;11176;51.448;6.650;2023-03-26T06:30:49;45602.06;;;-141.29;100.00
22025;BME280;11176;51.448;6.650;2023-03-26T06:33:38;45574.09;;;-141.29;100.00
22025;BME280;11176;51.448;6.650;2023-03-26T06:36:05;45586.09;;;-141.29;100.00
22025;BME280;11176;51.448;6.650;2023-03-26T06:38:32;45598.06;;;-141.29;100.00
22025;BME280;11176;51.448;6.650;2023-03-26T06:41:03;45570.09;;;-141.29;100.00
22025;BME280;11176;51.448;6.650;2023-03-26T06:43:57;45574.09;;;-141.29;100.00
22025;BME280;11176;51.448;6.650;2023-03-26T06:46:46;45570.09;;;-141.29;100.00
22025;BME280;11176;51.448;6.650;2023-03-26T06:49:31;45590.09;;;-141.29;100.00
22025;BME280;11176;51.448;6.650;2023-03-26T06:52:18;45588.09;;;-141.29;100.00
22025;BME280;11176;51.448;6.650;2023-03-26T06:54:44;45562.09;;;-141.29;100.00
22025;BME280;11176;51.448;6.650;2023-03-26T06:57:33;45574.09;;;-141.29;100.00
22025;BME280;11176;51.448;6.650;2023-03-26T07:00:36;45582.09;;;-141.29;100.00
22025;BME280;11176;51.448;6.650;2023-03-26T07:03:21;45602.06;;;-141.29;100.00
22025;BME280;11176;51.448;6.650;2023-03-26T07:06:07;45574.09;;;-141.29;100.00
22025;BME280;11176;51.448;6.650;2023-03-26T07:08:52;45590.09;;;-141.29;100.00
22025;BME280;11176;51.448;6.650;2023-03-26T07:11:39;45584.09;;;-141.29;100.00
22025;BME280;11176;51.448;6.650;2023-03-26T07:14:24;45584.09;;;-141.29;100.00
22025;BME280;11176;51.448;6.650;2023-03-26T07:17:06;45574.09;;;-141.29;100.00
22025;BME280;11176;51.448;6.650;2023-03-26T07:19:45;45574.09;;;-141.29;100.00
22025;BME280;11176;51.448;6.650;2023-03-26T07:22:19;45592.09;;;-141.29;100.00
22025;BME280;11176;51.448;6.650;2023-03-26T07:25:06;45578.09;;;-141.29;100.00
22025;BME280;11176;51.448;6.650;2023-03-26T07:27:51;45578.09;;;-141.29;100.00
22025;BME280;11176;51.448;6.650;2023-03-26T07:33:43;45576.09;;;-141.29;100.00
22025;BME280;11176;51.448;6.650;2023-03-26T07:39:43;45572.09;;;-141.29;100.00
22025;BME280;11176;51.448;6.650;2023-03-26T07:45:39;45564.09;;;-141.29;100.00
22025;BME280;11176;51.448;6.650;2023-03-26T07:48:19;45558.09;;;-141.29;100.00
22025;BME280;11176;51.448;6.650;2023-03-26T07:50:58;45586.09;;;-141.29;100.00
22025;BME280;11176;51.448;6.650;2023-03-26T07:53:38;45590.09;;;-141.29;100.00
22025;BME280;11176;51.448;6.650;2023-03-26T07:56:36;45566.09;;;-141.29;100.00
22025;BME280;11176;51.448;6.650;2023-03-26T07:59:56;45598.06;;;-141.29;100.00
22025;BME280;11176;51.448;6.650;2023-03-26T08:06:26;45582.09;;;-141.29;100.00
22025;BME280;11176;51.448;6.650;2023-03-26T08:09:10;45564.09;;;-141.29;100.00
22025;BME280;11176;51.448;6.650;2023-03-26T08:15:14;45590.09;;;-141.29;100.00
22025;BME280;11176;51.448;6.650;2023-03-26T08:20:44;45554.09;;;-141.29;100.00
22025;BME280;11176;51.448;6.650;2023-03-26T08:23:20;45574.09;;;-141.29;100.00
22025;BME280;11176;51.448;6.650;2023-03-26T08:25:55;45574.09;;;-141.29;100.00
22025;BME280;11176;51.448;6.650;2023-03-26T08:28:36;45582.09;;;-141.29;100.00
22025;BME280;11176;51.448;6.650;2023-03-26T08:31:08;45570.09;;;-141.29;100.00
22025;BME280;11176;51.448;6.650;2023-03-26T08:33:36;45550.13;;;-141.29;100.00
22025;BME280;11176;51.448;6.650;2023-03-26T08:36:08;45576.09;;;-141.29;100.00
22025;BME280;11176;51.448;6.650;2023-03-26T08:38:34;45572.09;;;-141.29;100.00
22025;BME280;11176;51.448;6.650;2023-03-26T08:49:37;45570.09;;;-141.29;100.00
22025;BME280;11176;51.448;6.650;2023-03-26T08:52:15;45568.09;;;-141.29;100.00
22025;BME280;11176;51.448;6.650;2023-03-26T08:58:09;45566.09;;;-141.29;100.00
22025;BME280;11176;51.448;6.650;2023-03-26T09:01:22;45578.09;;;-141.29;100.00
22025;BME280;11176;51.448;6.650;2023-03-26T09:20:22;45584.09;;;-141.29;100.00
22025;BME280;11176;51.448;6.650;2023-03-26T09:28:59;45586.09;;;-141.29;100.00
22025;BME280;11176;51.448;6.650;2023-03-26T09:31:53;45554.09;;;-141.29;100.00
22025;BME280;11176;51.448;6.650;2023-03-26T09:34:31;45548.13;;;-141.29;100.00
22025;BME280;11176;51.448;6.650;2023-03-26T09:39:52;45572.09;;;-141.29;100.00
22025;BME280;11176;51.448;6.650;2023-03-26T09:45:20;45558.09;;;-141.29;100.00
22025;BME280;11176;51.448;6.650;2023-03-26T09:54:02;45572.09;;;-141.29;100.00
22025;BME280;11176;51.448;6.650;2023-03-26T09:56:52;45564.09;;;-141.29;100.00
22025;BME280;11176;51.448;6.650;2023-03-26T10:05:22;45570.09;;;-141.29;100.00
22025;BME280;11176;51.448;6.650;2023-03-26T10:10:58;45550.13;;;-141.29;100.00
22025;BME280;11176;51.448;6.650;2023-03-26T10:18:58;45578.09;;;-141.29;100.00
22025;BME280;11176;51.448;6.650;2023-03-26T10:21:44;45554.09;;;-141.29;100.00
22025;BME280;11176;51.448;6.650;2023-03-26T10:24:32;45562.09;;;-141.29;100.00
22025;BME280;11176;51.448;6.650;2023-03-26T10:27:22;45556.09;;;-141.29;100.00
22025;BME280;11176;51.448;6.650;2023-03-26T10:30:27;45566.09;;;-141.29;100.00
22025;BME280;11176;51.448;6.650;2023-03-26T10:33:09;45554.09;;;-141.29;100.00
22025;BME280;11176;51.448;6.650;2023-03-26T10:41:16;45596.06;;;-141.29;100.00
22025;BME280;11176;51.448;6.650;2023-03-26T10:46:43;45566.09;;;-141.29;100.00
22025;BME280;11176;51.448;6.650;2023-03-26T10:49:26;45578.09;;;-141.29;100.00
22025;BME280;11176;51.448;6.650;2023-03-26T10:52:02;45570.09;;;-141.29;100.00
22025;BME280;11176;51.448;6.650;2023-03-26T11:00:25;45546.13;;;-141.29;100.00
22025;BME280;11176;51.448;6.650;2023-03-26T11:03:19;45578.09;;;-141.29;100.00
22025;BME280;11176;51.448;6.650;2023-03-26T11:06:09;45578.09;;;-141.29;100.00
22025;BME280;11176;51.448;6.650;2023-03-26T11:09:00;45562.09;;;-141.29;100.00
22025;BME280;11176;51.448;6.650;2023-03-26T11:17:19;45550.13;;;-141.29;100.00
22025;BME280;11176;51.448;6.650;2023-03-26T11:20:23;45568.09;;;-141.29;100.00
22025;BME280;11176;51.448;6.650;2023-03-26T11:23:17;45586.09;;;-141.29;100.00
22025;BME280;11176;51.448;6.650;2023-03-26T11:28:50;45570.09;;;-141.29;100.00
22025;BME280;11176;51.448;6.650;2023-03-26T11:31:53;45568.09;;;-141.29;100.00
22025;BME280;11176;51.448;6.650;2023-03-26T11:34:27;45582.09;;;-141.29;100.00
22025;BME280;11176;51.448;6.650;2023-03-26T11:36:56;45576.09;;;-141.29;100.00
22025;BME280;11176;51.448;6.650;2023-03-26T11:39:28;45578.09;;;-141.29;100.00
22025;BME280;11176;51.448;6.650;2023-03-26T11:42:15;45570.09;;;-141.29;100.00
22025;BME280;11176;51.448;6.650;2023-03-26T11:44:58;45562.09;;;-141.29;100.00
22025;BME280;11176;51.448;6.650;2023-03-26T11:47:41;45558.09;;;-141.29;100.00
22025;BME280;11176;51.448;6.650;2023-03-26T11:50:16;45570.09;;;-141.29;100.00
22025;BME280;11176;51.448;6.650;2023-03-26T11:52:43;45558.09;;;-141.29;100.00
22025;BME280;11176;51.448;6.650;2023-03-26T11:55:12;45562.09;;;-141.29;100.00
22025;BME280;11176;51.448;6.650;2023-03-26T11:57:44;45558.09;;;-141.29;100.00
22025;BME280;11176;51.448;6.650;2023-03-26T12:00:17;45572.09;;;-141.29;100.00
22025;BME280;11176;51.448;6.650;2023-03-26T12:02:46;45558.09;;;-141.29;100.00
22025;BME280;11176;51.448;6.650;2023-03-26T12:05:17;45562.09;;;-141.29;100.00
22025;BME280;11176;51.448;6.650;2023-03-26T12:07:58;45568.09;;;-141.29;100.00
22025;BME280;11176;51.448;6.650;2023-03-26T12:10:36;45550.13;;;-141.29;100.00
22025;BME280;11176;51.448;6.650;2023-03-26T12:13:28;45570.09;;;-141.29;100.00
22025;BME280;11176;51.448;6.650;2023-03-26T12:18:36;45538.13;;;-141.29;100.00
22025;BME280;11176;51.448;6.650;2023-03-26T12:21:18;45550.13;;;-141.29;100.00
22025;BME280;11176;51.448;6.650;2023-03-26T12:24:01;45542.13;;;-141.29;100.00
22025;BME280;11176;51.448;6.650;2023-03-26T12:26:39;45558.09;;;-141.29;100.00
22025;BME280;11176;51.448;6.650;2023-03-26T12:29:17;45558.09;;;-141.29;100.00
22025;BME280;11176;51.448;6.650;2023-03-26T12:31:54;45542.13;;;-141.29;100.00
22025;BME280;11176;51.448;6.650;2023-03-26T12:34:29;45510.16;;;-141.29;100.00
22025;BME280;11176;51.448;6.650;2023-03-26T12:36:57;45514.13;;;-141.29;100.00
22025;BME280;11176;51.448;6.650;2023-03-26T12:39:33;45546.13;;;-141.29;100.00
22025;BME280;11176;51.448;6.650;2023-03-26T12:42:28;45534.13;;;-141.29;100.00
22025;BME280;11176;51.448;6.650;2023-03-26T12:45:22;45534.13;;;-141.29;100.00
22025;BME280;11176;51.448;6.650;2023-03-26T12:47:51;45506.16;;;-141.29;100.00
22025;BME280;11176;51.448;6.650;2023-03-26T12:56:41;45498.16;;;-141.29;100.00
22025;BME280;11176;51.448;6.650;2023-03-26T13:00:04;45518.13;;;-141.29;100.00
22025;BME280;11176;51.448;6.650;2023-03-26T13:08:18;45502.16;;;-141.29;100.00
22025;BME280;11176;51.448;6.650;2023-03-26T13:19:10;45508.16;;;-141.29;100.00
22025;BME280;11176;51.448;6.650;2023-03-26T13:27:36;45518.13;;;-141.29;100.00
22025;BME280;11176;51.448;6.650;2023-03-26T13:30:26;45526.13;;;-141.29;100.00
22025;BME280;11176;51.448;6.650;2023-03-26T13:47:03;45530.13;;;-141.29;100.00
22025;BME280;11176;51.448;6.650;2023-03-26T13:49:39;45514.13;;;-141.29;100.00
22025;BME280;11176;51.448;6.650;2023-03-26T13:52:18;45498.16;;;-141.29;100.00
22025;BME280;11176;51.448;6.650;2023-03-26T13:55:17;45530.13;;;-141.29;100.00
22025;BME280;11176;51.448;6.650;2023-03-26T13:57:50;45560.09;;;-141.29;100.00
22025;BME280;11176;51.448;6.650;2023-03-26T14:00:24;45518.13;;;-141.29;100.00
22025;BME280;11176;51.448;6.650;2023-03-26T14:02:57;45542.13;;;-141.29;100.00
22025;BME280;11176;51.448;6.650;2023-03-26T14:05:34;45510.16;;;-141.29;100.00
22025;BME280;11176;51.448;6.650;2023-03-26T14:11:00;45530.13;;;-141.29;100.00
22025;BME280;11176;51.448;6.650;2023-03-26T14:13:44;45520.13;;;-141.29;100.00
22025;BME280;11176;51.448;6.650;2023-03-26T14:19:34;45552.13;;;-141.29;100.00
22025;BME280;11176;51.448;6.650;2023-03-26T14:28:01;45542.13;;;-141.29;100.00
22025;BME280;11176;51.448;6.650;2023-03-26T14:33:42;45522.13;;;-141.29;100.00
22025;BME280;11176;51.448;6.650;2023-03-26T14:39:10;45542.13;;;-141.29;100.00
22025;BME280;11176;51.448;6.650;2023-03-26T14:41:51;45554.09;;;-141.29;100.00
22025;BME280;11176;51.448;6.650;2023-03-26T14:47:16;45524.13;;;-141.29;100.00
22025;BME280;11176;51.448;6.650;2023-03-26T14:52:47;45534.13;;;-141.29;100.00
22025;BME280;11176;51.448;6.650;2023-03-26T15:21:54;45524.13;;;-141.29;100.00
22025;BME280;11176;51.448;6.650;2023-03-26T15:27:41;45518.13;;;-141.29;100.00
22025;BME280;11176;51.448;6.650;2023-03-26T15:30:31;45542.13;;;-141.29;100.00
22025;BME280;11176;51.448;6.650;2023-03-26T15:33:37;45530.13;;;-141.29;100.00
22025;BME280;11176;51.448;6.650;2023-03-26T15:39:23;45558.09;;;-141.29;100.00
22025;BME280;11176;51.448;6.650;2023-03-26T15:44:52;45530.13;;;-141.29;100.00
22025;BME280;11176;51.448;6.650;2023-03-26T15:53:02;45550.13;;;-141.29;100.00
22025;BME280;11176;51.448;6.650;2023-03-26T16:04:19;45546.13;;;-141.29;100.00
22025;BME280;11176;51.448;6.650;2023-03-26T16:06:57;45546.13;;;-141.29;100.00
22025;BME280;11176;51.448;6.650;2023-03-26T16:14:45;45538.13;;;-141.29;100.00
22025;BME280;11176;51.448;6.650;2023-03-26T16:17:16;45550.13;;;-141.29;100.00
22025;BME280;11176;51.448;6.650;2023-03-26T16:19:47;45566.09;;;-141.29;100.00
22025;BME280;11176;51.448;6.650;2023-03-26T16:30:37;45538.13;;;-141.29;100.00
22025;BME280;11176;51.448;6.650;2023-03-26T16:33:14;45554.09;;;-141.29;100.00
22025;BME280;11176;51.448;6.650;2023-03-26T16:36:13;45554.09;;;-141.29;100.00
22025;BME280;11176;51.448;6.650;2023-03-26T16:38:54;45558.09;;;-141.29;100.00
22025;BME280;11176;51.448;6.650;2023-03-26T16:50:15;45582.09;;;-141.29;100.00
22025;BME280;11176;51.448;6.650;2023-03-26T16:55:42;45550.13;;;-141.29;100.00
22025;BME280;11176;51.448;6.650;2023-03-26T16:58:15;45558.09;;;-141.29;100.00
22025;BME280;11176;51.448;6.650;2023-03-26T17:01:06;45548.13;;;-141.29;100.00
22025;BME280;11176;51.448;6.650;2023-03-26T17:03:50;45542.13;;;-141.29;100.00
22025;BME280;11176;51.448;6.650;2023-03-26T17:09:27;45566.09;;;-141.29;100.00
22025;BME280;11176;51.448;6.650;2023-03-26T17:12:06;45546.13;;;-141.29;100.00
22025;BME280;11176;51.448;6.650;2023-03-26T17:14:53;45578.09;;;-141.29;100.00
22025;BME280;11176;51.448;6.650;2023-03-26T17:20:03;45566.09;;;-141.29;100.00
22025;BME280;11176;51.448;6.650;2023-03-26T17:22:38;45590.09;;;-141.29;100.00
22025;BME280;11176;51.448;6.650;2023-03-26T17:25:35;45584.09;;;-141.29;100.00
22025;BME280;11176;51.448;6.650;2023-03-26T17:31:17;45576.09;;;-141.29;99.42
22025;BME280;11176;51.448;6.650;2023-03-26T17:33:45;45570.09;;;-141.29;99.00
22025;BME280;11176;51.448;6.650;2023-03-26T17:36:28;45556.09;;;-141.29;97.77
22025;BME280;11176;51.448;6.650;2023-03-26T17:39:00;45570.09;;;-141.29;96.88
22025;BME280;11176;51.448;6.650;2023-03-26T17:41:50;45562.09;;;-141.29;95.50
22025;BME280;11176;51.448;6.650;2023-03-26T17:44:40;45562.09;;;-141.29;95.40
22025;BME280;11176;51.448;6.650;2023-03-26T17:47:38;45576.09;;;-141.29;94.16
22025;BME280;11176;51.448;6.650;2023-03-26T17:50:12;45576.09;;;-141.29;94.49